Time;durP1;ratioP1;P1;durP2;ratioP2;P2;SDS_P1;SDS_P2;PMS_P1;PMS_P2;Temp;Humidity;BMP_temperature;BMP_pressure;BME280_temperature;BME280_humidity;BME280_pressure;Samples;Min_cycle;Max_cycle;Signal;HPM_P1;HPM_P2
2023/09/10 00:00:23;;;;;;;18.10;14.30;;;;;;;22.64;64.46;101591.91;5061536;28;20115;-66
2023/09/10 00:02:48;;;;;;;21.60;15.10;;;;;;;22.60;64.29;101588.56;5063068;28;20048;-65
2023/09/10 00:05:14;;;;;;;17.40;15.45;;;;;;;22.55;64.56;101600.72;5046656;28;20063;-66
2023/09/10 00:07:39;;;;;;;22.08;17.48;;;;;;;22.33;65.82;101594.28;5065568;28;20089;-65
2023/09/10 00:10:05;;;;;;;20.25;16.58;;;;;;;22.33;65.05;101596.97;5071883;28;20024;-65
2023/09/10 00:12:30;;;;;;;20.60;16.52;;;;;;;22.37;65.74;101598.47;5060711;28;20028;-65
2023/09/10 00:14:56;;;;;;;20.67;18.48;;;;;;;22.39;65.18;101595.69;5068110;28;20575;-66
2023/09/10 00:17:21;;;;;;;20.63;17.30;;;;;;;22.43;64.62;101597.16;5062469;28;20074;-65
2023/09/10 00:19:46;;;;;;;21.30;18.75;;;;;;;22.42;65.31;101590.88;5066344;28;20024;-65
2023/09/10 00:22:11;;;;;;;22.58;18.50;;;;;;;22.40;66.04;101594.69;5065181;28;20022;-66
2023/09/10 00:24:37;;;;;;;26.55;19.95;;;;;;;22.37;65.25;101595.78;5066999;28;20024;-65
2023/09/10 00:27:02;;;;;;;24.70;21.27;;;;;;;22.32;65.49;101595.28;5058868;28;20112;-66
2023/09/10 00:29:28;;;;;;;24.45;20.55;;;;;;;22.32;66.44;101595.28;5058736;28;20067;-65
2023/09/10 00:31:53;;;;;;;24.60;20.58;;;;;;;22.32;65.93;101599.81;5067884;28;20379;-65
2023/09/10 00:34:18;;;;;;;22.67;20.30;;;;;;;22.32;65.55;101595.28;5073577;28;20036;-66
2023/09/10 00:36:44;;;;;;;27.77;21.15;;;;;;;22.30;66.64;101589.16;5067278;28;20120;-65
2023/09/10 00:39:09;;;;;;;26.75;20.77;;;;;;;22.48;65.01;101586.00;5075987;28;20036;-65
2023/09/10 00:41:34;;;;;;;22.90;20.00;;;;;;;22.54;65.61;101586.38;5069211;28;20021;-65
2023/09/10 00:44:00;;;;;;;25.33;22.30;;;;;;;22.52;65.41;101584.78;5065034;28;20300;-66
2023/09/10 00:46:25;;;;;;;25.77;22.63;;;;;;;22.55;65.66;101590.78;5072385;28;20437;-65
2023/09/10 00:48:51;;;;;;;26.35;23.38;;;;;;;22.53;66.24;101586.50;5077218;28;20034;-66
2023/09/10 00:51:18;;;;;;;28.73;22.65;;;;;;;22.55;65.02;101582.69;5074036;28;20024;-66
2023/09/10 00:53:43;;;;;;;24.30;21.73;;;;;;;22.51;64.74;101586.59;5069206;28;20130;-65
2023/09/10 00:56:10;;;;;;;22.38;19.77;;;;;;;22.52;64.99;101587.47;5065439;28;20115;-65
2023/09/10 00:58:36;;;;;;;23.13;19.02;;;;;;;22.50;65.06;101590.28;5069972;28;20130;-66
2023/09/10 01:01:01;;;;;;;22.58;20.20;;;;;;;22.48;65.45;101583.31;5068298;28;20103;-65
2023/09/10 01:03:29;;;;;;;25.38;22.60;;;;;;;22.36;66.27;101583.28;5078281;22;20053;-69
2023/09/10 01:05:54;;;;;;;27.00;21.95;;;;;;;22.25;66.63;101579.72;5050932;28;20037;-67
2023/09/10 01:08:19;;;;;;;27.50;20.95;;;;;;;22.23;66.21;101587.91;5052258;28;20386;-67
2023/09/10 01:11:03;;;;;;;24.67;20.98;;;;;;;22.22;65.88;101582.66;5047773;28;20028;-67
2023/09/10 01:13:52;;;;;;;23.45;20.77;;;;;;;22.25;65.65;101588.66;5051922;28;20104;-67
2023/09/10 01:16:35;;;;;;;22.10;19.38;;;;;;;22.21;65.76;101584.50;5048374;28;20467;-67
2023/09/10 01:19:07;;;;;;;19.48;17.38;;;;;;;22.20;65.74;101585.47;5029848;28;20025;-67
2023/09/10 01:21:51;;;;;;;24.65;18.85;;;;;;;22.26;65.46;101584.97;5050771;28;20028;-67
2023/09/10 01:24:27;;;;;;;19.08;17.17;;;;;;;22.18;66.00;101586.56;5047215;28;20033;-67
2023/09/10 01:26:57;;;;;;;18.90;16.92;;;;;;;22.13;66.60;101582.38;5049682;28;20518;-67
2023/09/10 01:29:22;;;;;;;25.95;18.85;;;;;;;22.15;65.92;101584.97;5046532;28;20037;-67
2023/09/10 01:31:52;;;;;;;20.73;18.42;;;;;;;22.13;65.66;101584.22;5043561;28;20045;-67
2023/09/10 01:34:21;;;;;;;22.05;18.80;;;;;;;22.10;66.74;101581.72;5054346;28;20283;-67
2023/09/10 01:36:53;;;;;;;22.30;18.70;;;;;;;22.09;66.61;101582.69;5057042;28;20051;-67
2023/09/10 01:39:30;;;;;;;19.65;17.55;;;;;;;22.04;66.59;101588.44;5030848;28;20518;-67
2023/09/10 01:41:57;;;;;;;21.00;18.38;;;;;;;21.84;67.38;101579.19;5044119;28;20075;-67
2023/09/10 01:44:24;;;;;;;21.15;17.75;;;;;;;21.75;67.16;101581.72;5044039;28;20025;-67
2023/09/10 01:46:52;;;;;;;21.00;17.95;;;;;;;21.67;67.59;101582.28;5050332;28;20123;-67
2023/09/10 01:49:17;;;;;;;23.83;21.23;;;;;;;21.60;67.85;101584.59;5048653;28;20043;-67
2023/09/10 01:51:43;;;;;;;25.23;21.73;;;;;;;21.52;68.53;101581.59;5053009;28;20024;-67
2023/09/10 01:54:08;;;;;;;21.88;18.77;;;;;;;21.47;68.58;101581.09;5049357;28;20035;-67
2023/09/10 01:56:33;;;;;;;24.63;21.85;;;;;;;21.47;67.85;101591.84;5049362;28;20116;-67
2023/09/10 01:58:58;;;;;;;25.98;23.23;;;;;;;21.43;68.49;101581.44;5048320;28;20037;-68
2023/09/10 02:01:24;;;;;;;26.40;23.55;;;;;;;21.50;69.21;101598.84;5056608;28;20159;-67
2023/09/10 02:03:49;;;;;;;27.65;24.45;;;;;;;21.53;68.17;101595.91;5048727;28;20517;-68
2023/09/10 02:06:14;;;;;;;28.35;25.10;;;;;;;21.54;68.06;101595.81;5045758;28;20032;-68
2023/09/10 02:08:39;;;;;;;25.50;22.75;;;;;;;21.53;68.74;101587.84;5053618;28;20068;-68
2023/09/10 02:11:05;;;;;;;23.88;20.55;;;;;;;21.46;68.09;101605.44;5049534;28;20184;-67
2023/09/10 02:13:30;;;;;;;24.52;21.92;;;;;;;21.37;68.70;101594.38;5045546;28;20239;-67
2023/09/10 02:15:56;;;;;;;25.23;22.55;;;;;;;21.32;68.32;101596.53;5049916;28;20158;-67
2023/09/10 02:18:22;;;;;;;23.95;21.30;;;;;;;21.34;69.29;101599.09;5050409;28;20033;-67
2023/09/10 02:20:47;;;;;;;28.02;23.73;;;;;;;21.38;69.12;101600.59;5054881;28;20035;-70
2023/09/10 02:23:13;;;;;;;25.42;22.27;;;;;;;21.39;68.51;101595.09;5050121;28;20020;-69
2023/09/10 02:25:38;;;;;;;23.23;19.45;;;;;;;21.38;68.63;101596.09;5055665;28;20142;-69
2023/09/10 02:28:04;;;;;;;23.55;21.08;;;;;;;21.39;68.41;101600.47;5045712;28;21733;-69
2023/09/10 02:30:29;;;;;;;21.05;18.77;;;;;;;21.45;67.75;101598.31;5049238;28;20044;-69
2023/09/10 02:32:55;;;;;;;22.73;20.33;;;;;;;21.51;67.20;101597.88;5046166;28;20108;-69
2023/09/10 02:35:21;;;;;;;23.63;20.00;;;;;;;21.52;67.26;101602.28;5054565;28;20054;-69
2023/09/10 02:37:46;;;;;;;28.50;20.90;;;;;;;21.54;68.22;101608.38;5049712;28;20080;-69
2023/09/10 02:40:11;;;;;;;27.13;20.95;;;;;;;21.50;68.24;101602.41;5040044;28;20025;-69
2023/09/10 02:42:38;;;;;;;21.25;19.10;;;;;;;21.42;67.63;101598.56;5047502;28;20071;-69
2023/09/10 02:45:03;;;;;;;23.25;19.02;;;;;;;21.38;68.59;101598.78;5050647;28;20365;-69
2023/09/10 02:47:29;;;;;;;21.48;19.30;;;;;;;21.31;68.80;101602.00;5051977;28;20036;-69
2023/09/10 02:49:54;;;;;;;19.60;17.60;;;;;;;21.31;67.84;101602.00;5057037;28;20025;-69
2023/09/10 02:52:20;;;;;;;18.40;16.48;;;;;;;21.27;67.70;101596.00;5047856;28;20021;-69
2023/09/10 02:54:45;;;;;;;18.33;16.40;;;;;;;21.20;69.34;101605.47;5033626;28;20032;-69
2023/09/10 02:57:10;;;;;;;18.83;15.95;;;;;;;21.18;68.38;101598.50;5051767;28;20075;-69
2023/09/10 02:59:36;;;;;;;18.30;16.55;;;;;;;21.13;69.36;101604.22;5046234;28;20052;-69
2023/09/10 03:02:01;;;;;;;20.83;17.23;;;;;;;21.14;68.36;101600.53;5047255;28;20028;-69
2023/09/10 03:04:26;;;;;;;22.70;19.52;;;;;;;21.11;69.78;101606.97;5046144;28;20036;-69
2023/09/10 03:06:51;;;;;;;22.13;19.88;;;;;;;21.09;69.31;101605.41;5047850;28;20028;-69
2023/09/10 03:09:17;;;;;;;24.35;21.75;;;;;;;21.06;70.12;101608.28;5058169;28;20032;-69
2023/09/10 03:11:46;;;;;;;29.60;25.42;;;;;;;21.06;69.91;101608.28;5048407;28;20032;-69
2023/09/10 03:14:11;;;;;;;31.50;25.65;;;;;;;21.06;70.95;101598.41;5048422;28;20411;-69
2023/09/10 03:16:42;;;;;;;48.15;26.70;;;;;;;21.10;70.65;101594.50;5043147;28;20028;-69
2023/09/10 03:19:07;;;;;;;32.60;28.00;;;;;;;21.06;70.01;101598.41;5049978;28;20039;-70
2023/09/10 03:21:35;;;;;;;31.00;26.02;;;;;;;21.12;70.32;101599.78;5044265;28;20457;-69
2023/09/10 03:24:00;;;;;;;32.08;26.25;;;;;;;21.11;69.47;101596.22;5049147;28;20036;-69
2023/09/10 03:26:26;;;;;;;28.23;25.33;;;;;;;21.10;69.75;101594.50;5045366;28;20033;-69
2023/09/10 03:28:51;;;;;;;32.35;24.13;;;;;;;21.09;69.37;101595.50;5051368;28;20613;-69
2023/09/10 03:31:16;;;;;;;30.52;27.27;;;;;;;21.07;69.35;101592.03;5044443;28;20032;-69
2023/09/10 03:33:43;;;;;;;24.42;21.83;;;;;;;21.06;69.16;101589.47;5045774;28;20487;-69
2023/09/10 03:36:09;;;;;;;22.75;19.23;;;;;;;21.05;69.03;101593.13;5048029;28;20039;-69
2023/09/10 03:38:34;;;;;;;26.25;22.73;;;;;;;21.04;69.08;101584.22;5031245;28;20035;-69
2023/09/10 03:41:00;;;;;;;26.83;22.58;;;;;;;21.05;68.89;101585.94;5049554;28;20811;-69
2023/09/10 03:43:25;;;;;;;25.48;22.15;;;;;;;21.02;69.25;101593.34;5046669;28;20024;-69
2023/09/10 03:45:50;;;;;;;30.60;25.23;;;;;;;20.96;70.27;101601.88;5046464;28;20067;-69
2023/09/10 03:48:16;;;;;;;26.85;23.33;;;;;;;20.80;70.70;101600.28;5048132;28;20367;-69
2023/09/10 03:50:41;;;;;;;25.13;22.20;;;;;;;20.70;70.78;101598.34;5049272;28;20480;-69
2023/09/10 03:53:07;;;;;;;25.90;23.02;;;;;;;20.56;71.46;101584.06;5045234;28;20104;-69
2023/09/10 03:55:32;;;;;;;27.35;24.05;;;;;;;20.59;71.41;101585.66;5050312;28;20062;-69
2023/09/10 03:57:58;;;;;;;30.00;26.70;;;;;;;20.57;72.21;101592.97;5045139;28;20531;-69
2023/09/10 04:00:23;;;;;;;32.35;28.77;;;;;;;20.63;72.57;101592.53;5047831;28;20057;-70
2023/09/10 04:02:49;;;;;;;31.20;26.70;;;;;;;20.68;72.92;101582.31;5046067;28;20103;-69
2023/09/10 04:05:15;;;;;;;30.25;26.98;;;;;;;20.71;71.60;101592.00;5048676;28;20498;-69
2023/09/10 04:07:40;;;;;;;28.27;24.52;;;;;;;20.68;70.77;101586.84;5049336;28;20032;-69
2023/09/10 04:10:09;;;;;;;29.83;26.60;;;;;;;20.71;70.06;101583.94;5056938;28;20028;-69
2023/09/10 04:12:35;;;;;;;29.67;26.50;;;;;;;20.70;70.72;101577.69;5045425;28;20025;-69
2023/09/10 04:15:00;;;;;;;33.40;26.70;;;;;;;20.65;71.58;101579.84;5046955;28;20545;-69
2023/09/10 04:17:28;;;;;;;38.25;29.00;;;;;;;20.55;70.94;101581.47;5043073;28;20029;-69
2023/09/10 04:19:54;;;;;;;31.30;27.95;;;;;;;20.53;70.93;101580.72;5030095;28;20071;-69
2023/09/10 04:22:19;;;;;;;35.05;30.92;;;;;;;20.52;72.68;101584.41;5046691;28;20055;-69
2023/09/10 04:24:45;;;;;;;39.50;32.55;;;;;;;20.55;71.02;101586.84;5047418;28;20021;-69
2023/09/10 04:27:10;;;;;;;39.28;31.70;;;;;;;20.51;71.36;101580.81;5043011;28;20265;-69
2023/09/10 04:29:35;;;;;;;35.95;31.27;;;;;;;20.52;72.08;101581.72;5046734;28;20025;-69
2023/09/10 04:32:01;;;;;;;35.47;31.77;;;;;;;20.44;71.88;101579.50;5045466;28;20415;-69
2023/09/10 04:34:26;;;;;;;35.65;31.52;;;;;;;20.43;72.50;101579.63;5044544;28;20086;-69
2023/09/10 04:36:51;;;;;;;34.15;30.45;;;;;;;20.47;71.77;101573.06;5027602;28;20090;-69
2023/09/10 04:39:17;;;;;;;34.95;29.23;;;;;;;20.47;71.85;101579.34;5050455;28;20476;-69
2023/09/10 04:41:43;;;;;;;37.90;31.85;;;;;;;20.45;71.30;101580.38;5052190;28;20036;-69
2023/09/10 04:44:08;;;;;;;34.53;30.83;;;;;;;20.43;71.44;101583.16;5044113;28;20036;-69
2023/09/10 04:46:33;;;;;;;37.30;31.52;;;;;;;20.39;71.26;101579.84;5052373;28;20078;-69
2023/09/10 04:48:58;;;;;;;34.95;30.90;;;;;;;20.39;71.52;101585.19;5046455;28;20033;-69
2023/09/10 04:51:24;;;;;;;38.42;33.70;;;;;;;20.38;72.79;101586.19;5039545;28;20167;-69
2023/09/10 04:53:49;;;;;;;41.47;33.97;;;;;;;20.39;72.09;101587.03;5046508;28;20059;-69
2023/09/10 04:56:14;;;;;;;46.70;36.33;;;;;;;20.35;72.70;101586.38;5045386;28;20104;-69
2023/09/10 04:58:40;;;;;;;43.00;37.63;;;;;;;20.32;72.41;101586.59;5023302;28;20055;-69
2023/09/10 05:01:05;;;;;;;48.35;40.45;;;;;;;20.33;73.08;101587.44;5046183;28;20025;-69
2023/09/10 05:03:30;;;;;;;44.33;37.00;;;;;;;20.33;73.43;101587.44;5046524;28;20503;-69
2023/09/10 05:06:00;;;;;;;46.55;38.55;;;;;;;20.40;71.64;101594.13;5049664;28;20029;-69
2023/09/10 05:08:26;;;;;;;42.00;36.75;;;;;;;20.47;72.06;101589.16;5057899;28;20416;-69
2023/09/10 05:10:52;;;;;;;41.53;34.40;;;;;;;20.44;71.83;101597.47;5054370;28;20421;-69
2023/09/10 05:13:17;;;;;;;43.00;34.90;;;;;;;20.47;71.83;101598.16;5038843;28;20044;-69
2023/09/10 05:15:45;;;;;;;43.88;36.53;;;;;;;20.43;72.84;101599.28;5044953;28;20049;-69
2023/09/10 05:18:11;;;;;;;49.17;39.17;;;;;;;20.42;73.58;101602.06;5046692;28;20032;-69
2023/09/10 05:20:36;;;;;;;56.67;45.55;;;;;;;20.39;73.90;101604.00;5049056;28;20032;-69
2023/09/10 05:23:01;;;;;;;54.65;45.63;;;;;;;20.42;73.85;101602.91;5047820;28;20066;-69
2023/09/10 05:25:26;;;;;;;53.70;43.10;;;;;;;20.45;73.20;101600.03;5053932;28;20060;-69
2023/09/10 05:27:52;;;;;;;48.63;40.88;;;;;;;20.50;72.92;101605.13;5047387;28;20037;-69
2023/09/10 05:30:17;;;;;;;49.80;42.17;;;;;;;20.49;73.19;101598.88;5052292;28;20020;-69
2023/09/10 05:32:42;;;;;;;43.83;38.63;;;;;;;20.54;72.74;101607.47;5049440;28;20037;-69
2023/09/10 05:35:08;;;;;;;45.55;37.28;;;;;;;20.59;74.00;101607.16;5051961;28;20036;-69
2023/09/10 05:37:33;;;;;;;44.45;37.20;;;;;;;20.64;72.94;101596.94;5053520;28;20033;-69
2023/09/10 05:39:58;;;;;;;50.40;41.22;;;;;;;20.67;73.39;101601.25;5046501;28;20037;-68
2023/09/10 05:42:23;;;;;;;56.85;45.08;;;;;;;20.64;73.58;101599.63;5046344;28;20056;-69
2023/09/10 05:44:54;;;;;;;54.28;44.88;;;;;;;20.68;73.04;101602.97;5048650;28;20510;-69
2023/09/10 05:47:20;;;;;;;53.97;42.83;;;;;;;20.70;72.47;101604.56;5048047;28;20394;-69
2023/09/10 05:49:51;;;;;;;51.25;44.67;;;;;;;20.75;72.35;101605.13;5048349;28;20036;-69
2023/09/10 05:52:17;;;;;;;57.03;45.75;;;;;;;20.82;72.88;101603.69;5045786;28;20071;-69
2023/09/10 05:54:42;;;;;;;48.28;41.75;;;;;;;20.84;72.54;101603.59;5047752;28;20063;-69
2023/09/10 05:57:07;;;;;;;56.72;47.63;;;;;;;20.86;73.37;101612.41;5053493;28;20527;-69
2023/09/10 05:59:33;;;;;;;57.38;49.00;;;;;;;20.88;73.42;101613.16;5050644;28;20021;-69
2023/09/10 06:01:58;;;;;;;57.92;49.22;;;;;;;20.84;74.14;101609.84;5048105;28;20116;-69
2023/09/10 06:04:23;;;;;;;62.10;49.45;;;;;;;20.89;73.88;101602.31;5046201;28;20399;-69
2023/09/10 06:06:49;;;;;;;58.15;48.58;;;;;;;20.97;73.43;101615.19;5047172;28;20040;-69
2023/09/10 06:09:14;;;;;;;59.78;50.30;;;;;;;21.06;73.79;101619.03;5047942;28;20024;-69
2023/09/10 06:11:39;;;;;;;63.92;50.13;;;;;;;21.07;73.97;101618.06;5049614;28;20033;-69
2023/09/10 06:14:04;;;;;;;62.10;52.85;;;;;;;21.12;74.05;101624.88;5044924;28;20029;-69
2023/09/10 06:16:30;;;;;;;58.45;49.40;;;;;;;21.21;73.61;101626.00;5052456;28;20055;-69
2023/09/10 06:18:55;;;;;;;60.30;50.05;;;;;;;21.29;73.20;101620.06;5050093;28;20029;-69
2023/09/10 06:21:20;;;;;;;65.45;51.25;;;;;;;21.33;73.69;101616.22;5047238;28;20036;-69
2023/09/10 06:23:46;;;;;;;61.30;51.78;;;;;;;21.38;73.33;101630.19;5048393;28;20066;-69
2023/09/10 06:26:12;;;;;;;62.63;50.30;;;;;;;21.41;72.35;101623.75;5051271;28;20056;-69
2023/09/10 06:28:38;;;;;;;62.55;50.97;;;;;;;21.36;73.64;101629.47;5031163;28;20116;-69
2023/09/10 06:31:03;;;;;;;63.03;50.78;;;;;;;21.48;73.63;101630.38;5051484;28;20099;-69
2023/09/10 06:33:28;;;;;;;63.58;51.45;;;;;;;21.52;73.16;101626.50;5025307;28;20119;-69
2023/09/10 06:35:54;;;;;;;61.67;51.50;;;;;;;21.60;72.72;101634.88;5050795;28;20384;-69
2023/09/10 06:38:20;;;;;;;62.53;50.78;;;;;;;21.68;73.19;101632.44;5051468;28;20120;-69
2023/09/10 06:40:46;;;;;;;62.00;51.55;;;;;;;21.75;72.51;101622.97;5050293;28;20523;-69
2023/09/10 06:43:11;;;;;;;61.08;50.97;;;;;;;21.81;73.08;101633.25;5046809;28;20107;-69
2023/09/10 06:45:38;;;;;;;61.40;50.05;;;;;;;21.90;72.69;101637.09;5049888;28;20028;-69
2023/09/10 06:48:04;;;;;;;55.58;48.05;;;;;;;21.93;72.24;101636.00;5047788;28;20116;-69
2023/09/10 06:50:29;;;;;;;59.28;48.17;;;;;;;22.01;71.89;101636.28;5062299;28;20025;-69
2023/09/10 06:52:55;;;;;;;55.58;47.75;;;;;;;22.08;72.07;101641.09;5049363;28;20021;-69
2023/09/10 06:55:20;;;;;;;52.95;46.85;;;;;;;22.21;71.65;101643.75;5052343;28;20472;-69
2023/09/10 06:57:45;;;;;;;61.40;48.05;;;;;;;22.33;71.59;101644.63;5051306;28;20664;-69
2023/09/10 07:00:11;;;;;;;63.53;49.80;;;;;;;22.32;71.83;101646.47;5044653;28;20438;-69
2023/09/10 07:02:36;;;;;;;55.95;47.28;;;;;;;22.40;71.54;101645.88;5053317;28;20029;-69
2023/09/10 07:05:02;;;;;;;53.33;44.45;;;;;;;22.49;71.20;101644.31;5045748;28;20058;-69
2023/09/10 07:07:27;;;;;;;56.03;46.47;;;;;;;22.56;71.59;101645.53;5049747;28;20067;-69
2023/09/10 07:09:52;;;;;;;54.60;45.50;;;;;;;22.67;71.61;101648.28;5053396;28;20060;-69
2023/09/10 07:12:19;;;;;;;55.05;45.95;;;;;;;22.77;71.22;101648.41;5047860;28;20024;-69
2023/09/10 07:14:45;;;;;;;53.10;45.65;;;;;;;22.85;70.03;101648.66;5046185;28;20280;-67
2023/09/10 07:17:10;;;;;;;51.83;43.35;;;;;;;22.97;69.72;101649.56;5047240;28;20404;-67
2023/09/10 07:19:36;;;;;;;52.75;44.83;;;;;;;22.95;69.77;101654.22;5051302;28;20025;-67
2023/09/10 07:22:02;;;;;;;50.90;41.95;;;;;;;23.06;69.66;101648.81;5053773;28;20036;-67
2023/09/10 07:24:27;;;;;;;54.70;45.25;;;;;;;23.08;69.96;101652.22;5053198;28;20035;-67
2023/09/10 07:26:52;;;;;;;50.00;40.30;;;;;;;23.25;70.02;101651.75;5053980;28;20041;-67
2023/09/10 07:29:18;;;;;;;49.22;42.38;;;;;;;23.39;69.54;101656.03;5043577;28;20028;-67
2023/09/10 07:31:43;;;;;;;53.70;43.60;;;;;;;23.40;69.94;101655.88;5047118;28;20035;-67
2023/09/10 07:34:09;;;;;;;49.33;41.03;;;;;;;23.46;68.83;101653.69;5029086;28;20028;-67
2023/09/10 07:36:34;;;;;;;47.90;41.25;;;;;;;23.55;69.35;101648.41;5048976;28;20067;-67
2023/09/10 07:39:00;;;;;;;48.35;39.53;;;;;;;23.66;68.19;101658.34;5052215;28;20052;-67
2023/09/10 07:41:25;;;;;;;45.92;37.17;;;;;;;23.87;68.35;101651.13;5045208;28;20551;-67
2023/09/10 07:43:50;;;;;;;46.47;37.35;;;;;;;24.13;68.18;101656.22;5045885;28;20272;-67
2023/09/10 07:46:15;;;;;;;41.22;36.70;;;;;;;24.47;67.26;101646.09;5048318;28;20476;-67
2023/09/10 07:48:41;;;;;;;44.33;35.67;;;;;;;24.65;67.13;101651.78;5045405;28;20530;-67
2023/09/10 07:51:06;;;;;;;40.65;33.45;;;;;;;25.12;66.24;101646.78;5054208;28;20089;-67
2023/09/10 07:53:32;;;;;;;39.95;33.97;;;;;;;25.51;64.67;101657.72;5049443;28;20059;-67
2023/09/10 07:55:57;;;;;;;39.80;35.05;;;;;;;25.60;63.17;101654.16;5051501;28;20040;-67
2023/09/10 07:58:22;;;;;;;37.95;32.88;;;;;;;25.98;62.22;101655.28;5044849;28;20508;-67
2023/09/10 08:00:50;;;;;;;41.25;32.58;;;;;;;26.34;60.99;101657.22;5046882;28;20107;-67
2023/09/10 08:03:15;;;;;;;37.80;30.50;;;;;;;26.56;60.08;101660.66;5046625;28;20163;-69
2023/09/10 08:05:41;;;;;;;34.40;30.15;;;;;;;26.58;60.67;101656.81;5048575;28;20535;-69
2023/09/10 08:08:06;;;;;;;33.00;28.65;;;;;;;26.78;60.07;101662.19;5052348;28;20024;-69
2023/09/10 08:10:33;;;;;;;34.67;28.48;;;;;;;26.99;58.13;101675.53;5047732;28;21115;-69
2023/09/10 08:12:59;;;;;;;34.60;28.38;;;;;;;27.38;57.87;101670.84;5047730;28;20035;-69
2023/09/10 08:15:25;;;;;;;35.35;28.42;;;;;;;27.83;57.34;101670.84;5050245;28;20111;-69
2023/09/10 08:17:54;;;;;;;33.35;27.33;;;;;;;27.81;56.36;101672.88;5049919;28;20102;-70
2023/09/10 08:20:20;;;;;;;30.10;26.73;;;;;;;28.11;55.24;101670.78;5057255;28;20337;-69
2023/09/10 08:22:45;;;;;;;33.10;26.33;;;;;;;28.50;54.35;101665.03;5028302;28;20028;-69
2023/09/10 08:25:11;;;;;;;29.20;23.42;;;;;;;28.75;54.97;101672.34;5042210;28;20090;-68
2023/09/10 08:27:36;;;;;;;27.17;23.42;;;;;;;29.13;53.80;101657.44;5046103;28;20029;-68
2023/09/10 08:30:05;;;;;;;27.17;23.50;;;;;;;29.22;53.65;101656.47;5044584;28;20486;-68
2023/09/10 08:32:34;;;;;;;28.45;23.92;;;;;;;29.36;53.17;101659.59;5044094;28;20082;-68
2023/09/10 08:35:00;;;;;;;24.95;21.02;;;;;;;29.79;52.71;101653.09;5047924;28;20029;-69
2023/09/10 08:37:25;;;;;;;29.45;21.55;;;;;;;30.14;51.08;101648.41;5033134;28;20033;-68
2023/09/10 08:39:51;;;;;;;29.45;23.33;;;;;;;30.21;50.49;101650.25;5037345;28;20029;-69
2023/09/10 08:42:28;;;;;;;26.58;22.02;;;;;;;30.55;50.72;101651.97;5047997;28;20468;-69
2023/09/10 08:44:56;;;;;;;24.73;21.77;;;;;;;30.76;49.46;101647.84;5043436;28;20052;-69
2023/09/10 08:47:23;;;;;;;21.80;19.08;;;;;;;31.11;49.23;101657.50;5047304;28;20039;-69
2023/09/10 08:49:55;;;;;;;24.50;19.88;;;;;;;31.68;46.93;101654.50;5047415;28;20056;-69
2023/09/10 08:52:22;;;;;;;22.85;19.58;;;;;;;31.98;46.56;101656.34;5050941;28;20112;-69
2023/09/10 08:54:48;;;;;;;29.10;20.13;;;;;;;32.10;45.88;101658.69;5043297;28;20037;-69
2023/09/10 08:57:14;;;;;;;23.75;20.48;;;;;;;31.80;46.49;101655.75;5049682;28;20442;-69
2023/09/10 08:59:41;;;;;;;22.20;18.67;;;;;;;32.03;45.79;101653.06;5046099;28;20376;-69
2023/09/10 09:02:09;;;;;;;27.33;18.70;;;;;;;32.18;44.87;101654.00;5032795;28;20024;-69
2023/09/10 09:04:35;;;;;;;20.60;16.63;;;;;;;32.64;44.24;101658.53;5049687;28;20106;-69
2023/09/10 09:07:02;;;;;;;17.48;15.63;;;;;;;32.86;45.26;101657.63;5047714;28;20025;-69
2023/09/10 09:09:34;;;;;;;22.33;16.60;;;;;;;32.69;44.88;101670.66;5045448;28;20534;-69
2023/09/10 09:12:02;;;;;;;21.40;16.90;;;;;;;32.81;43.70;101668.28;5050380;28;20017;-69
2023/09/10 09:14:28;;;;;;;18.98;15.25;;;;;;;33.34;43.54;101662.72;5044831;28;20035;-69
2023/09/10 09:16:54;;;;;;;18.63;14.48;;;;;;;33.53;42.61;101653.94;5043665;28;20383;-69
2023/09/10 09:19:21;;;;;;;19.05;14.70;;;;;;;33.87;41.70;101658.75;5050089;28;20031;-69
2023/09/10 09:21:49;;;;;;;20.98;13.88;;;;;;;33.89;42.05;101651.16;5052661;28;20503;-69
2023/09/10 09:24:14;;;;;;;14.82;12.57;;;;;;;34.77;40.03;101647.09;5044492;28;20040;-70
2023/09/10 09:26:41;;;;;;;15.05;12.88;;;;;;;35.01;39.77;101650.41;5045500;28;20036;-69
2023/09/10 09:29:07;;;;;;;17.92;12.35;;;;;;;35.17;38.60;101649.25;5046024;28;20082;-69
2023/09/10 09:31:33;;;;;;;15.52;10.82;;;;;;;35.59;37.70;101650.06;5041113;28;20033;-69
2023/09/10 09:33:59;;;;;;;12.27;10.52;;;;;;;35.68;37.99;101643.31;5050280;28;20021;-69
2023/09/10 09:36:27;;;;;;;14.25;10.90;;;;;;;36.18;36.34;101646.56;5025716;28;20120;-69
2023/09/10 09:38:52;;;;;;;12.80;10.75;;;;;;;36.53;36.38;101639.81;5049559;28;20029;-69
2023/09/10 09:41:17;;;;;;;11.77;9.95;;;;;;;36.97;35.12;101645.69;5058457;28;20032;-69
2023/09/10 09:43:44;;;;;;;20.38;11.38;;;;;;;36.72;36.18;101645.50;5053922;28;20025;-69
2023/09/10 09:46:10;;;;;;;15.52;10.85;;;;;;;36.58;35.51;101644.69;5040166;28;20053;-69
2023/09/10 09:48:36;;;;;;;13.48;9.43;;;;;;;36.98;34.69;101639.97;5043598;28;20063;-70
2023/09/10 09:51:03;;;;;;;12.00;9.43;;;;;;;37.26;34.73;101644.28;5055480;28;20062;-70
2023/09/10 09:53:31;;;;;;;14.52;9.82;;;;;;;37.81;33.99;101632.78;5049970;28;20029;-69
2023/09/10 09:55:59;;;;;;;16.15;11.38;;;;;;;38.05;33.20;101634.75;5050534;28;20033;-70
2023/09/10 09:58:24;;;;;;;13.02;10.52;;;;;;;37.91;34.16;101630.41;5043309;28;20044;-70
2023/09/10 10:00:49;;;;;;;12.15;10.50;;;;;;;38.14;33.47;101633.41;5047901;28;20024;-70
2023/09/10 10:03:17;;;;;;;14.90;8.00;;;;;;;38.98;32.70;101634.72;5045639;28;20383;-70
2023/09/10 10:05:42;;;;;;;14.00;9.90;;;;;;;39.23;31.49;101629.16;5041160;28;20033;-70
2023/09/10 10:08:08;;;;;;;13.50;8.27;;;;;;;39.52;30.93;101626.63;5045802;28;20434;-70
2023/09/10 10:10:33;;;;;;;14.85;9.50;;;;;;;39.58;31.56;101630.34;5051436;28;20047;-70
2023/09/10 10:13:00;;;;;;;15.68;8.25;;;;;;;40.16;30.06;101632.50;5043375;28;20484;-70
2023/09/10 10:15:25;;;;;;;9.88;8.32;;;;;;;40.15;30.40;101630.78;5047523;28;20033;-70
2023/09/10 10:17:53;;;;;;;14.75;8.05;;;;;;;40.47;29.50;101631.28;5045844;28;20047;-69
2023/09/10 10:20:19;;;;;;;12.70;8.48;;;;;;;40.59;29.22;101625.78;5050614;28;20024;-70
2023/09/10 10:22:46;;;;;;;16.00;8.60;;;;;;;40.64;29.89;101625.91;5050596;28;20021;-70
2023/09/10 10:25:12;;;;;;;11.65;7.50;;;;;;;40.95;29.68;101621.91;5050620;28;20028;-71
2023/09/10 10:27:39;;;;;;;10.55;7.50;;;;;;;41.25;29.03;101625.28;5029700;28;20037;-71
2023/09/10 10:30:06;;;;;;;10.52;7.00;;;;;;;41.10;28.44;101624.16;5049981;28;20459;-71
2023/09/10 10:32:44;;;;;;;9.25;7.45;;;;;;;40.76;30.04;101621.19;5047928;28;20259;-71
2023/09/10 10:35:10;;;;;;;9.57;7.50;;;;;;;41.03;28.53;101622.34;5028440;28;20116;-70
2023/09/10 10:37:48;;;;;;;12.98;7.60;;;;;;;40.74;29.15;101615.03;5047219;28;20158;-70
2023/09/10 10:40:19;;;;;;;10.93;7.22;;;;;;;40.34;30.07;101614.91;5045406;28;20511;-70
2023/09/10 10:42:52;;;;;;;8.98;7.20;;;;;;;40.22;29.63;101610.22;5043830;28;20017;-70
2023/09/10 10:45:18;;;;;;;10.73;6.55;;;;;;;40.25;28.63;101614.44;5045185;28;20040;-71
2023/09/10 10:47:46;;;;;;;12.52;6.97;;;;;;;39.43;29.08;101615.03;5049470;28;20479;-71
2023/09/10 10:50:13;;;;;;;8.35;5.10;;;;;;;39.62;29.60;101615.81;5046338;28;20032;-70
2023/09/10 10:52:58;;;;;;;7.47;5.90;;;;;;;39.75;28.92;101604.56;5048107;28;20527;-71
2023/09/10 10:55:24;;;;;;;9.02;5.97;;;;;;;40.01;27.92;101603.31;5040909;28;20021;-70
2023/09/10 10:57:50;;;;;;;8.13;6.25;;;;;;;40.15;28.67;101608.63;5045821;28;20021;-71
2023/09/10 11:00:16;;;;;;;12.25;6.68;;;;;;;39.55;30.38;101604.00;5047204;28;20488;-70
2023/09/10 11:02:41;;;;;;;9.43;6.43;;;;;;;39.65;30.35;101603.47;5045338;28;20020;-70
2023/09/10 11:05:07;;;;;;;8.10;6.33;;;;;;;39.67;29.91;101609.59;5046845;28;20325;-71